Time;durP1;ratioP1;P1;durP2;ratioP2;P2;SDS_P1;SDS_P2;PMS_P1;PMS_P2;Temp;Humidity;BMP_temperature;BMP_pressure;BME280_temperature;BME280_humidity;BME280_pressure;Samples;Min_cycle;Max_cycle;Signal;HPM_P1;HPM_P2
2021/09/23 00:02:36;;;;;;;25.27;13.90;;;12.60;99.90;;;;;;5054930;28;20025;-85
2021/09/23 00:05:02;;;;;;;24.33;14.47;;;12.50;99.90;;;;;;5072713;28;20481;-85
2021/09/23 00:07:27;;;;;;;22.67;14.57;;;12.50;99.90;;;;;;5055076;28;20052;-85
2021/09/23 00:09:54;;;;;;;25.83;15.52;;;12.40;99.90;;;;;;5054339;28;20067;-85
2021/09/23 00:12:19;;;;;;;26.67;15.50;;;12.50;99.90;;;;;;5072664;28;20033;-85
2021/09/23 00:14:45;;;;;;;24.70;15.87;;;12.40;99.90;;;;;;5054489;28;20029;-85
2021/09/23 00:17:11;;;;;;;29.57;16.27;;;12.50;99.90;;;;;;5054683;28;20128;-85
2021/09/23 00:19:36;;;;;;;23.25;14.93;;;12.50;99.90;;;;;;5053625;28;20495;-85
2021/09/23 00:22:02;;;;;;;25.73;16.23;;;12.40;99.90;;;;;;5054704;28;20024;-85
2021/09/23 00:24:28;;;;;;;26.02;15.68;;;12.50;99.90;;;;;;5054913;28;20089;-85
2021/09/23 00:26:53;;;;;;;27.10;15.77;;;12.50;99.90;;;;;;5054543;28;20029;-85
2021/09/23 00:29:19;;;;;;;24.87;14.60;;;12.40;99.90;;;;;;5071815;28;20106;-85
2021/09/23 00:31:44;;;;;;;28.58;15.75;;;12.40;99.90;;;;;;5054324;28;20492;-86
2021/09/23 00:34:10;;;;;;;26.17;15.70;;;12.50;99.90;;;;;;5054135;28;20546;-86
2021/09/23 00:36:36;;;;;;;26.17;15.30;;;12.60;99.90;;;;;;5054423;28;20024;-86
2021/09/23 00:39:01;;;;;;;28.30;16.83;;;12.50;99.90;;;;;;5053682;28;20028;-85
2021/09/23 00:41:27;;;;;;;25.05;15.40;;;12.60;99.90;;;;;;5054392;28;20016;-85
2021/09/23 00:43:53;;;;;;;26.70;15.75;;;12.60;99.90;;;;;;5054205;28;20021;-85
2021/09/23 00:46:19;;;;;;;27.90;16.40;;;12.60;99.90;;;;;;5054178;28;20030;-85
2021/09/23 00:48:49;;;;;;;29.83;17.33;;;12.60;99.90;;;;;;5054050;28;20024;-85
2021/09/23 00:51:18;;;;;;;25.60;15.18;;;12.50;99.90;;;;;;5053681;28;20115;-85
2021/09/23 00:53:45;;;;;;;25.27;15.60;;;12.50;99.90;;;;;;5071956;28;20017;-85
2021/09/23 00:56:10;;;;;;;25.77;16.37;;;12.60;99.90;;;;;;5054234;28;20047;-85
2021/09/23 00:58:37;;;;;;;28.83;16.87;;;12.60;99.90;;;;;;5054056;28;20025;-86
2021/09/23 01:01:02;;;;;;;23.33;14.43;;;12.70;99.90;;;;;;5053368;28;20125;-85
2021/09/23 01:03:28;;;;;;;23.23;14.13;;;12.70;99.90;;;;;;5053928;28;20456;-85
2021/09/23 01:05:54;;;;;;;24.60;15.13;;;12.80;99.90;;;;;;5071893;28;20020;-85
2021/09/23 01:08:19;;;;;;;27.83;15.50;;;12.80;99.90;;;;;;5053985;28;20028;-85
2021/09/23 01:10:45;;;;;;;28.63;15.33;;;12.80;99.90;;;;;;5071360;28;20032;-85
2021/09/23 01:13:10;;;;;;;22.83;14.50;;;12.80;99.90;;;;;;5053728;28;20032;-86
2021/09/23 01:15:36;;;;;;;25.27;15.10;;;12.80;99.90;;;;;;5053862;28;20482;-86
2021/09/23 01:18:02;;;;;;;24.50;15.55;;;12.70;99.90;;;;;;5071892;28;20024;-85
2021/09/23 01:20:27;;;;;;;25.73;14.60;;;12.60;99.90;;;;;;5053342;28;20020;-85
2021/09/23 01:22:53;;;;;;;25.02;14.45;;;12.60;99.90;;;;;;5053850;28;20067;-85
2021/09/23 01:25:22;;;;;;;26.87;16.17;;;12.60;99.90;;;;;;5053717;28;20027;-85
2021/09/23 01:27:48;;;;;;;25.02;15.68;;;12.60;99.90;;;;;;5053692;28;20021;-85
2021/09/23 01:30:14;;;;;;;23.23;14.95;;;12.50;99.90;;;;;;5053174;28;20040;-85
2021/09/23 01:32:40;;;;;;;27.53;16.00;;;12.50;99.90;;;;;;5075112;28;20036;-86
2021/09/23 01:35:07;;;;;;;24.73;14.33;;;12.50;99.90;;;;;;5057398;28;20033;-85
2021/09/23 01:37:33;;;;;;;20.83;14.17;;;12.50;99.90;;;;;;5075567;28;20025;-85
2021/09/23 01:39:59;;;;;;;25.73;14.57;;;12.50;99.90;;;;;;5057168;28;20025;-85
2021/09/23 01:42:25;;;;;;;25.77;14.63;;;12.50;99.90;;;;;;5075503;28;20038;-85
2021/09/23 01:44:51;;;;;;;26.20;15.63;;;12.60;99.90;;;;;;5057581;28;20062;-85
2021/09/23 01:47:17;;;;;;;25.65;15.48;;;12.50;99.90;;;;;;5057454;28;20504;-86
2021/09/23 01:49:43;;;;;;;27.75;15.20;;;12.50;99.90;;;;;;5056947;28;20054;-85
2021/09/23 01:52:08;;;;;;;27.37;16.17;;;12.50;99.90;;;;;;5057382;28;20036;-85
2021/09/23 01:54:34;;;;;;;24.13;15.90;;;12.50;99.90;;;;;;5075129;28;20537;-85
2021/09/23 01:56:59;;;;;;;23.63;15.53;;;12.50;99.90;;;;;;5075213;28;20029;-85
2021/09/23 01:59:25;;;;;;;27.77;16.13;;;12.40;99.90;;;;;;5074618;28;20028;-86
2021/09/23 02:01:51;;;;;;;23.35;15.02;;;12.40;99.90;;;;;;5057117;28;20029;-85
2021/09/23 02:04:16;;;;;;;24.03;15.07;;;12.40;99.90;;;;;;5057317;28;20115;-86
2021/09/23 02:06:42;;;;;;;24.50;15.23;;;12.50;99.90;;;;;;5057219;28;20025;-85
2021/09/23 02:09:08;;;;;;;26.60;15.93;;;12.50;99.90;;;;;;5056526;28;20044;-85
2021/09/23 02:11:34;;;;;;;23.80;15.17;;;12.50;99.90;;;;;;5075295;28;20025;-85
2021/09/23 02:14:00;;;;;;;23.07;14.63;;;12.50;99.90;;;;;;5074753;28;20028;-85
2021/09/23 02:16:25;;;;;;;24.50;15.27;;;12.60;99.90;;;;;;5057031;28;20736;-85
2021/09/23 02:18:51;;;;;;;27.88;15.57;;;12.60;99.90;;;;;;5056748;28;20060;-85
2021/09/23 02:21:16;;;;;;;23.57;15.03;;;12.50;99.90;;;;;;5056682;28;20481;-85
2021/09/23 02:23:42;;;;;;;24.47;15.00;;;12.50;99.90;;;;;;5056678;28;20028;-85
2021/09/23 02:26:08;;;;;;;22.60;14.97;;;12.40;99.90;;;;;;5055538;28;20028;-85
2021/09/23 02:28:38;;;;;;;27.00;15.60;;;12.40;99.90;;;;;;5073745;28;20025;-85
2021/09/23 02:31:04;;;;;;;22.47;15.23;;;12.30;99.90;;;;;;5074130;28;20108;-85
2021/09/23 02:33:30;;;;;;;22.35;14.93;;;12.30;99.90;;;;;;5056433;28;20111;-85
2021/09/23 02:35:55;;;;;;;20.60;14.00;;;12.30;99.90;;;;;;5057069;28;20477;-86
2021/09/23 02:38:21;;;;;;;24.83;15.60;;;12.30;99.90;;;;;;5074510;28;20166;-86
2021/09/23 02:40:47;;;;;;;24.60;14.67;;;12.30;99.90;;;;;;5055933;28;20024;-86
2021/09/23 02:43:13;;;;;;;23.67;14.70;;;12.30;99.90;;;;;;5055849;28;20029;-86
2021/09/23 02:45:39;;;;;;;20.70;14.70;;;12.30;99.90;;;;;;5056273;28;20477;-86
2021/09/23 02:48:05;;;;;;;22.17;14.37;;;12.20;99.90;;;;;;5056355;28;20039;-86
2021/09/23 02:50:31;;;;;;;23.70;14.83;;;12.20;99.90;;;;;;5055734;28;20036;-86
2021/09/23 02:52:57;;;;;;;22.13;14.27;;;12.20;99.90;;;;;;5056255;28;20029;-86
2021/09/23 02:55:22;;;;;;;23.50;15.07;;;12.30;99.90;;;;;;5056239;28;20035;-86
2021/09/23 02:57:48;;;;;;;24.63;15.33;;;12.30;99.90;;;;;;5074134;28;20077;-86
2021/09/23 03:00:14;;;;;;;21.23;14.13;;;12.30;99.90;;;;;;5073878;28;20046;-86
2021/09/23 03:02:40;;;;;;;20.60;14.57;;;12.30;99.90;;;;;;5056092;28;20028;-85
2021/09/23 03:05:06;;;;;;;22.07;13.70;;;12.30;99.90;;;;;;5074086;28;20396;-84
2021/09/23 03:07:31;;;;;;;21.63;13.50;;;12.30;99.90;;;;;;5074091;28;20034;-84
2021/09/23 03:09:57;;;;;;;19.63;13.27;;;12.30;99.90;;;;;;5055499;28;20032;-84
2021/09/23 03:12:22;;;;;;;20.10;13.27;;;12.30;99.90;;;;;;5056134;28;20028;-85
2021/09/23 03:14:48;;;;;;;21.47;14.10;;;12.20;99.90;;;;;;5055916;28;20500;-85
2021/09/23 03:17:14;;;;;;;21.33;13.90;;;12.20;99.90;;;;;;5056064;28;20032;-84
2021/09/23 03:19:39;;;;;;;19.07;11.70;;;12.20;99.90;;;;;;5073305;28;20029;-84
2021/09/23 03:22:05;;;;;;;22.13;13.25;;;12.30;99.90;;;;;;5055907;28;20064;-84
2021/09/23 03:24:31;;;;;;;20.30;11.93;;;12.30;99.90;;;;;;5055943;28;20123;-84
2021/09/23 03:26:57;;;;;;;22.17;13.50;;;12.30;99.90;;;;;;5073754;28;20060;-84
2021/09/23 03:29:23;;;;;;;20.70;13.03;;;12.40;99.90;;;;;;5055384;28;20036;-85
2021/09/23 03:31:48;;;;;;;20.83;12.97;;;12.40;99.90;;;;;;5073406;28;20029;-84
2021/09/23 03:34:14;;;;;;;20.55;12.02;;;12.40;99.90;;;;;;5073212;28;20037;-84
2021/09/23 03:36:40;;;;;;;18.77;11.83;;;12.40;99.90;;;;;;5056048;28;20032;-85
2021/09/23 03:39:06;;;;;;;18.27;12.10;;;12.40;99.90;;;;;;5055256;28;20059;-84
2021/09/23 03:41:32;;;;;;;20.42;12.70;;;12.40;99.90;;;;;;5056039;28;20173;-85
2021/09/23 03:43:59;;;;;;;18.58;12.43;;;12.40;99.90;;;;;;5073277;28;20366;-84
2021/09/23 03:46:25;;;;;;;17.83;12.17;;;12.30;99.90;;;;;;5055661;28;20556;-84
2021/09/23 03:48:50;;;;;;;19.30;12.70;;;12.40;99.90;;;;;;5073217;28;20056;-84
2021/09/23 03:51:16;;;;;;;21.52;12.77;;;12.50;99.90;;;;;;5055475;28;20486;-85
2021/09/23 03:53:42;;;;;;;21.70;12.53;;;12.40;99.90;;;;;;5054409;28;20035;-85
2021/09/23 03:56:12;;;;;;;21.93;13.57;;;12.30;99.90;;;;;;5073119;28;20114;-85
2021/09/23 03:58:42;;;;;;;28.60;13.98;;;12.20;99.90;;;;;;5073055;28;20517;-85
2021/09/23 04:01:08;;;;;;;20.17;12.90;;;12.20;99.90;;;;;;5055155;28;20051;-86
2021/09/23 04:03:33;;;;;;;18.57;13.23;;;12.20;99.90;;;;;;5055176;28;20028;-85
2021/09/23 04:05:59;;;;;;;21.35;13.40;;;12.10;99.90;;;;;;5055515;28;20036;-85
2021/09/23 04:08:25;;;;;;;21.77;12.37;;;12.10;99.90;;;;;;5055773;28;20029;-84
2021/09/23 04:10:50;;;;;;;15.97;11.50;;;12.10;99.90;;;;;;5072581;28;20024;-84
2021/09/23 04:13:16;;;;;;;21.20;12.30;;;12.20;99.90;;;;;;5055293;28;20081;-84
2021/09/23 04:15:43;;;;;;;18.85;12.73;;;12.20;99.90;;;;;;5073203;28;20060;-85
2021/09/23 04:18:09;;;;;;;15.67;11.37;;;12.20;99.90;;;;;;5056004;28;20031;-85
2021/09/23 04:20:35;;;;;;;16.60;11.53;;;12.20;99.90;;;;;;5056041;28;20028;-85
2021/09/23 04:23:00;;;;;;;18.38;11.65;;;12.20;99.90;;;;;;5077648;28;20124;-86
2021/09/23 04:25:26;;;;;;;17.15;11.40;;;12.20;99.90;;;;;;5058375;28;20028;-85
2021/09/23 04:27:52;;;;;;;16.30;10.75;;;12.30;99.90;;;;;;5058171;28;20024;-85
2021/09/23 04:30:18;;;;;;;19.37;12.20;;;12.30;99.90;;;;;;5056867;28;20036;-85
2021/09/23 04:32:44;;;;;;;18.83;11.63;;;12.30;99.90;;;;;;5057287;28;20039;-84
2021/09/23 04:35:09;;;;;;;19.67;12.13;;;12.20;99.90;;;;;;5055680;28;20056;-86
2021/09/23 04:37:35;;;;;;;19.67;12.20;;;12.20;99.90;;;;;;5057574;28;20024;-85
2021/09/23 04:40:01;;;;;;;18.80;11.73;;;12.10;99.90;;;;;;5057340;28;20074;-85
2021/09/23 04:42:27;;;;;;;20.13;11.93;;;12.10;99.90;;;;;;5058421;28;20503;-85
2021/09/23 04:44:53;;;;;;;18.20;12.03;;;12.10;99.90;;;;;;5057241;28;20380;-85
2021/09/23 04:47:19;;;;;;;18.37;11.43;;;12.00;99.90;;;;;;5056560;28;20111;-85
2021/09/23 04:49:44;;;;;;;17.87;11.93;;;12.00;99.90;;;;;;5057083;28;20052;-85
2021/09/23 04:52:10;;;;;;;22.30;13.43;;;12.00;99.90;;;;;;5074593;28;20024;-85
2021/09/23 04:54:36;;;;;;;22.83;11.70;;;12.00;99.90;;;;;;5075719;28;20115;-85
2021/09/23 04:57:02;;;;;;;17.77;11.77;;;11.90;99.90;;;;;;5075892;28;20063;-85
2021/09/23 04:59:28;;;;;;;23.63;12.47;;;12.00;99.90;;;;;;5073431;28;20035;-85
2021/09/23 05:01:53;;;;;;;19.83;11.60;;;12.00;99.90;;;;;;5073909;28;20421;-85
2021/09/23 05:04:19;;;;;;;21.77;12.37;;;12.00;99.90;;;;;;5073064;28;20033;-85
2021/09/23 05:06:45;;;;;;;21.33;12.60;;;11.90;99.90;;;;;;5055264;28;20032;-85
2021/09/23 05:09:10;;;;;;;19.43;12.07;;;12.00;99.90;;;;;;5072991;28;20439;-85
2021/09/23 05:11:37;;;;;;;18.00;11.70;;;12.00;99.90;;;;;;5055624;28;20060;-85
2021/09/23 05:14:03;;;;;;;17.20;10.50;;;12.00;99.90;;;;;;5058041;28;20032;-85
2021/09/23 05:16:29;;;;;;;20.67;12.00;;;12.00;99.90;;;;;;5073834;28;20029;-85
2021/09/23 05:18:55;;;;;;;18.87;11.43;;;12.00;99.90;;;;;;5072722;28;20021;-84
2021/09/23 05:21:20;;;;;;;20.50;12.13;;;12.00;99.90;;;;;;5073523;28;20028;-85
2021/09/23 05:23:46;;;;;;;22.33;12.50;;;12.00;99.90;;;;;;5072969;28;20461;-85
2021/09/23 05:26:12;;;;;;;22.47;11.83;;;12.00;99.90;;;;;;5054639;28;20039;-85
2021/09/23 05:28:37;;;;;;;21.33;11.73;;;12.10;99.90;;;;;;5054877;28;20029;-84
2021/09/23 05:31:04;;;;;;;20.07;11.57;;;12.10;99.90;;;;;;5071987;28;20028;-85
2021/09/23 05:33:30;;;;;;;19.60;10.93;;;12.20;99.90;;;;;;5054690;28;20036;-85
2021/09/23 05:35:56;;;;;;;20.53;11.17;;;12.20;99.90;;;;;;5054681;28;20036;-85
2021/09/23 05:38:23;;;;;;;20.43;11.30;;;12.20;99.90;;;;;;5054592;28;20055;-85
2021/09/23 05:40:49;;;;;;;17.43;10.67;;;12.20;99.90;;;;;;5055065;28;20452;-85
2021/09/23 05:43:15;;;;;;;21.37;11.73;;;12.30;99.90;;;;;;5072128;28;20481;-84
2021/09/23 05:45:40;;;;;;;19.53;11.30;;;12.30;99.90;;;;;;5072144;28;20082;-84
2021/09/23 05:48:06;;;;;;;16.88;11.30;;;12.30;99.90;;;;;;5054724;28;20020;-85
2021/09/23 05:50:32;;;;;;;18.17;10.80;;;12.30;99.90;;;;;;5071556;28;20047;-85
2021/09/23 05:53:00;;;;;;;17.20;9.97;;;12.30;99.90;;;;;;5055016;28;20424;-85
2021/09/23 05:55:26;;;;;;;16.10;10.37;;;12.30;99.90;;;;;;5054575;28;20555;-85
2021/09/23 05:57:51;;;;;;;20.70;11.00;;;12.40;99.90;;;;;;5054216;28;20287;-85
2021/09/23 06:00:18;;;;;;;17.47;11.53;;;12.30;99.90;;;;;;5072535;28;20032;-84
2021/09/23 06:02:45;;;;;;;17.30;10.33;;;12.40;99.90;;;;;;5054024;28;20016;-85
2021/09/23 06:05:13;;;;;;;19.83;11.30;;;12.40;99.90;;;;;;5054841;28;20115;-84
2021/09/23 06:07:40;;;;;;;16.52;9.68;;;12.50;99.90;;;;;;5072256;28;20029;-85
2021/09/23 06:10:08;;;;;;;20.23;10.95;;;12.50;99.90;;;;;;5053586;28;20067;-84
2021/09/23 06:12:34;;;;;;;18.00;11.02;;;12.50;99.90;;;;;;5054113;28;20029;-85
2021/09/23 06:14:59;;;;;;;19.08;11.38;;;12.60;99.90;;;;;;5071596;28;20024;-85
2021/09/23 06:17:25;;;;;;;16.45;10.15;;;12.60;99.90;;;;;;5056071;28;20017;-85
2021/09/23 06:19:50;;;;;;;19.03;10.80;;;12.60;99.90;;;;;;5057060;28;20020;-86
2021/09/23 06:22:16;;;;;;;22.02;10.98;;;12.60;99.90;;;;;;5075193;28;20020;-84
2021/09/23 06:24:42;;;;;;;15.73;10.05;;;12.60;99.90;;;;;;5057277;28;20050;-85
2021/09/23 06:27:08;;;;;;;20.08;11.20;;;12.70;99.90;;;;;;5057690;28;20572;-85
2021/09/23 06:29:34;;;;;;;20.23;11.10;;;12.70;99.90;;;;;;5056760;28;20033;-84
2021/09/23 06:32:00;;;;;;;17.15;10.50;;;12.70;99.90;;;;;;5056568;28;20070;-85
2021/09/23 06:34:26;;;;;;;16.88;10.23;;;12.70;99.90;;;;;;5074962;28;20477;-85
2021/09/23 06:36:52;;;;;;;16.35;9.85;;;12.70;99.90;;;;;;5057563;28;20027;-85
2021/09/23 06:39:18;;;;;;;18.90;11.20;;;12.80;99.90;;;;;;5057621;28;20021;-85
2021/09/23 06:41:43;;;;;;;17.70;9.90;;;12.80;99.90;;;;;;5058138;28;20140;-84
2021/09/23 06:44:10;;;;;;;16.63;10.43;;;12.80;99.90;;;;;;5076518;28;20036;-85
2021/09/23 06:46:35;;;;;;;18.65;11.10;;;12.80;99.90;;;;;;5058330;28;20086;-85
2021/09/23 06:49:02;;;;;;;16.25;10.32;;;12.80;99.90;;;;;;5058316;28;20028;-84
2021/09/23 06:51:28;;;;;;;18.02;10.98;;;12.90;99.90;;;;;;5076426;28;20036;-86
2021/09/23 06:53:54;;;;;;;18.90;10.18;;;12.90;99.90;;;;;;5058329;28;20025;-86
2021/09/23 06:56:20;;;;;;;21.33;11.00;;;12.90;99.90;;;;;;5059226;28;20029;-85
2021/09/23 06:58:46;;;;;;;20.67;11.65;;;12.90;99.90;;;;;;5059012;28;20031;-85
2021/09/23 07:01:12;;;;;;;17.55;10.25;;;13.00;99.90;;;;;;5057672;28;20043;-85
2021/09/23 07:03:37;;;;;;;16.80;10.35;;;13.00;99.90;;;;;;5057998;28;20070;-86
2021/09/23 07:06:03;;;;;;;17.25;10.32;;;13.00;99.90;;;;;;5058472;28;20024;-84
2021/09/23 07:08:29;;;;;;;15.43;10.35;;;13.10;99.90;;;;;;5076828;28;20541;-85
2021/09/23 07:10:54;;;;;;;20.23;10.57;;;13.10;99.90;;;;;;5057623;28;20439;-85
2021/09/23 07:13:20;;;;;;;18.38;10.85;;;13.10;99.90;;;;;;5058444;28;20023;-85
2021/09/23 07:15:46;;;;;;;17.02;9.85;;;13.20;99.90;;;;;;5058008;28;20051;-85
2021/09/23 07:18:11;;;;;;;18.13;9.90;;;13.20;99.90;;;;;;5058535;28;20032;-85
2021/09/23 07:20:37;;;;;;;19.83;10.73;;;13.20;99.90;;;;;;5057558;28;20025;-85
2021/09/23 07:23:04;;;;;;;17.02;10.55;;;13.30;99.90;;;;;;5077921;28;20377;-85
2021/09/23 07:25:30;;;;;;;18.50;10.70;;;13.30;99.90;;;;;;5076387;28;20032;-85
2021/09/23 07:27:56;;;;;;;15.13;10.90;;;13.40;99.90;;;;;;5058469;28;20028;-85
2021/09/23 07:30:23;;;;;;;22.85;11.18;;;13.40;99.90;;;;;;5057484;28;20481;-86
2021/09/23 07:32:50;;;;;;;16.05;10.25;;;13.50;99.90;;;;;;5058967;28;20555;-86
2021/09/23 07:35:16;;;;;;;16.30;9.82;;;13.50;99.90;;;;;;5058746;28;20139;-85
2021/09/23 07:37:42;;;;;;;19.05;10.40;;;13.50;99.90;;;;;;5058983;28;20500;-85
2021/09/23 07:40:10;;;;;;;15.13;9.77;;;13.60;99.90;;;;;;5075550;28;20031;-85
2021/09/23 07:42:36;;;;;;;20.83;10.02;;;13.60;99.90;;;;;;5058199;28;20393;-85
2021/09/23 07:45:04;;;;;;;16.02;9.75;;;13.60;99.90;;;;;;5074352;28;20025;-85
2021/09/23 07:47:30;;;;;;;23.25;10.55;;;13.80;99.90;;;;;;5075384;28;20068;-85
2021/09/23 07:49:55;;;;;;;20.15;10.18;;;13.80;99.90;;;;;;5073678;28;20036;-85
2021/09/23 07:52:21;;;;;;;17.58;10.60;;;13.90;99.90;;;;;;5074326;28;20028;-85
2021/09/23 07:54:47;;;;;;;15.68;10.02;;;13.80;99.90;;;;;;5056662;28;20070;-85
2021/09/23 07:57:14;;;;;;;18.30;10.52;;;14.00;99.90;;;;;;5056769;28;20492;-85
2021/09/23 07:59:40;;;;;;;19.33;10.02;;;14.00;99.90;;;;;;5073611;28;20031;-85
2021/09/23 08:02:07;;;;;;;19.33;10.52;;;14.10;99.90;;;;;;5055613;28;20017;-85
2021/09/23 08:04:32;;;;;;;18.10;11.35;;;14.10;99.90;;;;;;5056151;28;20056;-85
2021/09/23 08:06:58;;;;;;;17.00;10.13;;;14.10;99.90;;;;;;5073976;28;20051;-84
2021/09/23 08:09:24;;;;;;;17.77;10.23;;;14.10;99.90;;;;;;5073510;28;20048;-86
2021/09/23 08:11:50;;;;;;;18.85;9.93;;;14.20;99.90;;;;;;5055778;28;20332;-85
2021/09/23 08:14:15;;;;;;;14.40;9.77;;;14.20;99.90;;;;;;5055919;28;20059;-85
2021/09/23 08:16:43;;;;;;;14.90;9.60;;;14.20;99.90;;;;;;5055738;28;20398;-85
2021/09/23 08:19:09;;;;;;;15.00;9.55;;;14.20;99.90;;;;;;5054912;28;20052;-85
2021/09/23 08:21:34;;;;;;;15.45;8.90;;;14.20;99.90;;;;;;5058607;28;20032;-84
2021/09/23 08:24:00;;;;;;;15.75;8.98;;;14.20;99.90;;;;;;5076401;28;20077;-84
2021/09/23 08:26:27;;;;;;;18.13;9.48;;;14.30;99.90;;;;;;5073565;28;20021;-85
2021/09/23 08:28:53;;;;;;;17.92;9.75;;;14.30;99.90;;;;;;5055067;28;20250;-85
2021/09/23 08:31:19;;;;;;;14.65;9.38;;;14.30;99.90;;;;;;5055270;28;20025;-86
2021/09/23 08:33:46;;;;;;;19.92;9.68;;;14.40;99.90;;;;;;5074010;28;20044;-85
2021/09/23 08:36:11;;;;;;;18.02;9.40;;;14.40;99.90;;;;;;5056266;28;20038;-86
2021/09/23 08:38:37;;;;;;;17.52;9.48;;;14.50;99.90;;;;;;5054924;28;20020;-86
2021/09/23 08:41:04;;;;;;;17.17;9.88;;;14.60;99.90;;;;;;5055944;28;20020;-86
2021/09/23 08:43:29;;;;;;;15.90;10.23;;;14.60;99.90;;;;;;5074224;28;20027;-85
2021/09/23 08:45:56;;;;;;;15.48;9.75;;;14.70;99.90;;;;;;5057093;28;20025;-86
2021/09/23 08:48:22;;;;;;;19.20;9.90;;;14.80;99.90;;;;;;5059907;28;20029;-85
2021/09/23 08:50:48;;;;;;;16.88;9.57;;;14.90;99.90;;;;;;5058898;28;20059;-86
2021/09/23 08:53:13;;;;;;;18.75;10.18;;;14.90;99.90;;;;;;5059270;28;20024;-86
2021/09/23 08:55:39;;;;;;;15.52;9.52;;;15.10;99.90;;;;;;5059416;28;20031;-86
2021/09/23 08:58:06;;;;;;;15.32;9.02;;;15.10;99.90;;;;;;5059696;28;20020;-85
2021/09/23 09:00:37;;;;;;;16.05;9.50;;;15.10;99.90;;;;;;5059168;28;20401;-85
2021/09/23 09:03:08;;;;;;;21.83;10.75;;;15.20;99.90;;;;;;5059419;28;20029;-86
2021/09/23 09:05:37;;;;;;;16.23;8.98;;;15.30;99.90;;;;;;5060575;28;20021;-86
2021/09/23 09:08:13;;;;;;;16.40;9.07;;;15.40;99.90;;;;;;5060999;28;20035;-86
2021/09/23 09:10:39;;;;;;;15.93;8.90;;;15.50;99.90;;;;;;5060764;28;20043;-86
2021/09/23 09:13:07;;;;;;;16.65;8.63;;;15.50;99.90;;;;;;5059377;28;20021;-86
2021/09/23 09:15:45;;;;;;;15.15;8.63;;;15.60;99.90;;;;;;5077102;28;20029;-86
2021/09/23 09:18:12;;;;;;;13.77;8.10;;;15.60;99.90;;;;;;5061353;28;20071;-85
2021/09/23 09:20:50;;;;;;;15.70;8.32;;;15.70;99.90;;;;;;5060254;28;20439;-85
2021/09/23 09:23:16;;;;;;;15.45;8.32;;;15.80;99.90;;;;;;5054808;28;20396;-85
2021/09/23 09:25:42;;;;;;;14.13;8.20;;;15.90;99.80;;;;;;5055206;28;20121;-86
2021/09/23 09:28:07;;;;;;;14.55;7.90;;;16.00;99.60;;;;;;5074056;28;20052;-85
2021/09/23 09:30:33;;;;;;;20.50;8.05;;;16.00;99.30;;;;;;5054019;28;20028;-85
2021/09/23 09:32:59;;;;;;;13.57;8.02;;;16.10;99.20;;;;;;5054539;28;20050;-85
2021/09/23 09:35:30;;;;;;;12.40;7.47;;;16.10;99.20;;;;;;5054257;28;20033;-85
2021/09/23 09:37:57;;;;;;;13.43;7.70;;;16.30;98.80;;;;;;5054902;28;20056;-85
2021/09/23 09:40:35;;;;;;;15.43;7.93;;;16.30;98.50;;;;;;5053919;28;20042;-85
2021/09/23 09:43:07;;;;;;;12.98;7.03;;;16.30;98.90;;;;;;5054085;28;20028;-85
2021/09/23 09:45:34;;;;;;;13.52;6.93;;;16.30;99.00;;;;;;5072243;28;20024;-85
2021/09/23 09:48:02;;;;;;;12.95;7.05;;;16.40;98.90;;;;;;5054112;28;20032;-85
2021/09/23 09:50:38;;;;;;;11.90;6.87;;;16.40;98.40;;;;;;5054323;28;20432;-85
2021/09/23 09:53:10;;;;;;;13.77;6.45;;;16.50;98.50;;;;;;5074655;28;20025;-85
2021/09/23 09:55:43;;;;;;;12.75;6.32;;;16.60;97.90;;;;;;5057921;28;20032;-86
2021/09/23 09:58:10;;;;;;;11.57;6.18;;;16.70;97.70;;;;;;5057857;28;20501;-85
2021/09/23 10:00:37;;;;;;;13.05;6.35;;;16.90;97.30;;;;;;5057386;28;20016;-85
2021/09/23 10:03:03;;;;;;;13.18;6.25;;;16.90;97.10;;;;;;5077355;28;20021;-85
2021/09/23 10:05:30;;;;;;;17.17;7.63;;;16.90;97.40;;;;;;5057776;28;20029;-85
2021/09/23 10:07:58;;;;;;;13.70;7.95;;;17.00;97.50;;;;;;5057753;28;20067;-85
2021/09/23 10:10:28;;;;;;;15.38;8.13;;;17.10;97.00;;;;;;5057799;28;20028;-85
2021/09/23 10:12:59;;;;;;;14.32;7.40;;;17.10;97.20;;;;;;5075884;28;20020;-85
2021/09/23 10:15:25;;;;;;;12.02;6.80;;;17.10;97.40;;;;;;5057691;28;20035;-85
2021/09/23 10:17:54;;;;;;;12.90;6.75;;;17.10;97.40;;;;;;5058411;28;20032;-85
2021/09/23 10:20:23;;;;;;;17.92;7.05;;;17.10;97.80;;;;;;5056940;28;20035;-85
2021/09/23 10:22:49;;;;;;;13.33;6.90;;;17.10;97.80;;;;;;5058756;28;20069;-85
2021/09/23 10:25:18;;;;;;;15.85;7.95;;;17.20;97.70;;;;;;5057619;28;20024;-86
2021/09/23 10:28:00;;;;;;;;;;;17.20;97.70;;;;;;5058221;28;20035;-85
2021/09/23 10:30:38;;;;;;;10.68;7.07;;;17.30;97.90;;;;;;5057585;28;19911;-85
2021/09/23 10:33:06;;;;;;;14.77;7.05;;;17.30;98.20;;;;;;5057273;28;20146;-85
2021/09/23 10:35:32;;;;;;;13.02;7.38;;;17.20;97.90;;;;;;5056431;28;20048;-86
2021/09/23 10:38:00;;;;;;;10.90;7.05;;;17.30;98.00;;;;;;5056646;28;20020;-86
2021/09/23 10:40:28;;;;;;;17.08;7.65;;;17.20;98.10;;;;;;5056168;28;20074;-86
2021/09/23 10:42:59;;;;;;;14.68;7.85;;;17.30;98.20;;;;;;5056453;28;20020;-86
2021/09/23 10:45:27;;;;;;;15.57;7.85;;;17.30;98.40;;;;;;5056472;28;20048;-86
2021/09/23 10:47:55;;;;;;;15.27;7.80;;;17.30;98.60;;;;;;5056795;28;20037;-86
2021/09/23 10:50:26;;;;;;;11.75;7.75;;;17.30;98.70;;;;;;5073631;28;20058;-86
2021/09/23 10:52:54;;;;;;;12.18;7.85;;;17.40;98.70;;;;;;5074300;28;20439;-86
2021/09/23 10:55:21;;;;;;;13.15;7.97;;;17.40;98.70;;;;;;5074316;28;20021;-86
2021/09/23 10:57:47;;;;;;;15.52;8.73;;;17.40;98.90;;;;;;5056300;28;20090;-86
2021/09/23 11:00:14;;;;;;;15.45;8.02;;;17.50;98.70;;;;;;5055696;28;20020;-86
2021/09/23 11:02:41;;;;;;;13.02;8.10;;;17.50;99.00;;;;;;5055893;28;20028;-86
2021/09/23 11:05:12;;;;;;;15.95;8.15;;;17.50;99.20;;;;;;5056023;28;20472;-86
2021/09/23 11:07:43;;;;;;;15.82;9.05;;;17.50;99.30;;;;;;5074208;28;20104;-86
2021/09/23 11:10:21;;;;;;;16.70;9.23;;;17.60;99.10;;;;;;5056038;28;20029;-86
2021/09/23 11:12:52;;;;;;;18.40;8.43;;;17.60;99.10;;;;;;5056699;28;20028;-86
2021/09/23 11:15:23;;;;;;;15.77;9.77;;;17.60;99.00;;;;;;5056388;28;20116;-86
2021/09/23 11:17:50;;;;;;;22.40;9.95;;;17.70;99.30;;;;;;5056458;28;20028;-86
2021/09/23 11:20:20;;;;;;;13.85;8.48;;;17.70;99.10;;;;;;5055437;28;20028;-86
2021/09/23 11:22:54;;;;;;;15.55;8.48;;;17.60;99.10;;;;;;5056042;28;20465;-86
2021/09/23 11:25:43;;;;;;;16.65;9.50;;;17.70;98.80;;;;;;5055960;28;20032;-86
2021/09/23 11:28:10;;;;;;;15.13;8.90;;;17.80;98.50;;;;;;5055957;28;20020;-86
2021/09/23 11:30:37;;;;;;;16.30;7.78;;;17.80;98.70;;;;;;5071929;28;20497;-86
2021/09/23 11:33:14;;;;;;;14.43;7.90;;;17.70;98.90;;;;;;5055295;28;20109;-86
2021/09/23 11:35:43;;;;;;;17.40;9.80;;;17.70;99.30;;;;;;5055372;28;20413;-86
2021/09/23 11:38:11;;;;;;;12.75;8.02;;;17.90;98.70;;;;;;5073575;28;20025;-86
2021/09/23 11:40:41;;;;;;;13.18;8.05;;;17.90;98.70;;;;;;5059611;28;20037;-85
2021/09/23 11:43:12;;;;;;;16.20;8.63;;;17.80;98.90;;;;;;5059734;28;20024;-85
2021/09/23 11:45:44;;;;;;;13.48;7.13;;;18.00;98.60;;;;;;5058772;28;20500;-86
2021/09/23 11:48:13;;;;;;;12.98;7.07;;;18.00;98.40;;;;;;5059045;28;20060;-86
2021/09/23 11:50:43;;;;;;;13.15;7.82;;;18.00;98.50;;;;;;5058685;28;20481;-86
2021/09/23 11:53:19;;;;;;;13.20;7.72;;;18.00;98.40;;;;;;5058861;28;20052;-86
2021/09/23 11:56:02;;;;;;;14.75;8.50;;;18.10;98.60;;;;;;5075925;28;20025;-86
2021/09/23 11:58:30;;;;;;;14.73;8.45;;;18.20;98.60;;;;;;5076171;28;20040;-86
2021/09/23 12:00:57;;;;;;;13.90;7.80;;;18.20;98.50;;;;;;5054706;28;20551;-86
2021/09/23 12:03:23;;;;;;;17.02;8.07;;;18.30;98.40;;;;;;5054889;28;20110;-86
2021/09/23 12:05:51;;;;;;;13.95;7.15;;;18.30;98.40;;;;;;5073122;28;20025;-86
2021/09/23 12:08:19;;;;;;;14.90;7.93;;;18.40;98.30;;;;;;5072914;28;20020;-86
2021/09/23 12:10:49;;;;;;;12.73;7.20;;;18.50;98.10;;;;;;5054568;28;20020;-86
2021/09/23 12:13:30;;;;;;;13.20;6.82;;;18.50;98.20;;;;;;5054863;28;20112;-86
2021/09/23 12:15:59;;;;;;;15.75;8.32;;;18.50;98.10;;;;;;5054062;28;20032;-86
2021/09/23 12:18:27;;;;;;;15.02;8.13;;;18.60;98.10;;;;;;5054788;28;20028;-86
2021/09/23 12:20:56;;;;;;;14.70;7.68;;;18.70;97.70;;;;;;5072064;28;20024;-86
2021/09/23 12:23:22;;;;;;;13.23;7.68;;;18.70;97.40;;;;;;5054707;28;20127;-86
2021/09/23 12:26:10;;;;;;;16.27;7.88;;;18.70;97.50;;;;;;5054846;28;20044;-86
2021/09/23 12:28:49;;;;;;;13.18;8.27;;;18.70;97.80;;;;;;5053957;28;20429;-86
2021/09/23 12:31:25;;;;;;;12.88;8.10;;;18.70;97.60;;;;;;5054522;28;20568;-86